Time;durP1;ratioP1;P1;durP2;ratioP2;P2;SDS_P1;SDS_P2;PMS_P1;PMS_P2;Temp;Humidity;BMP_temperature;BMP_pressure;BME280_temperature;BME280_humidity;BME280_pressure;Samples;Min_cycle;Max_cycle;Signal;HPM_P1;HPM_P2
2022/11/17 00:01:48;;;;;;;12.70;3.70;;;;;;;25.73;36.09;98829.03;5034060;28;20108;-45
2022/11/17 00:04:17;;;;;;;11.30;3.45;;;;;;;25.78;35.88;98837.66;5034203;28;20113;-48
2022/11/17 00:06:45;;;;;;;9.73;2.95;;;;;;;25.79;35.95;98837.59;5035317;28;20180;-46
2022/11/17 00:09:16;;;;;;;8.63;2.65;;;;;;;25.73;35.88;98847.41;5035077;28;20108;-45
2022/11/17 00:14:35;;;;;;;10.88;3.90;;;;;;;25.73;35.75;98855.28;5028249;28;20037;-46
2022/11/17 00:17:07;;;;;;;13.73;3.83;;;;;;;25.70;35.47;98845.75;5034005;28;20032;-45
2022/11/17 00:22:24;;;;;;;10.85;3.20;;;;;;;25.57;35.93;98860.97;5027872;28;20150;-46
2022/11/17 00:24:53;;;;;;;7.38;2.53;;;;;;;25.55;35.77;98860.13;5035132;28;20021;-49
2022/11/17 00:27:21;;;;;;;7.63;2.75;;;;;;;25.61;35.66;98875.72;5035096;28;20096;-46
2022/11/17 00:29:50;;;;;;;8.13;2.58;;;;;;;25.60;35.65;98871.38;5034781;28;20056;-48
2022/11/17 00:35:07;;;;;;;7.30;2.65;;;;;;;25.55;35.75;98889.00;5024469;28;20037;-46
2022/11/17 00:37:38;;;;;;;8.10;2.47;;;;;;;25.52;35.58;98896.97;5034688;28;20025;-45
2022/11/17 00:40:25;;;;;;;8.82;2.78;;;;;;;25.51;36.10;98904.91;5034397;28;20026;-49
2022/11/17 00:42:54;;;;;;;9.18;2.75;;;;;;;25.41;36.22;98904.22;5034686;28;20392;-46
2022/11/17 00:45:22;;;;;;;5.32;2.10;;;;;;;25.46;36.15;98926.03;5034568;28;20116;-55
2022/11/17 00:47:50;;;;;;;6.97;2.20;;;;;;;25.36;36.19;98925.34;5034670;28;20026;-46
2022/11/17 00:50:38;;;;;;;5.90;1.80;;;;;;;25.37;36.34;98919.22;5034176;28;20052;-46
2022/11/17 00:53:06;;;;;;;6.43;2.13;;;;;;;25.48;35.80;98926.84;5033582;28;20022;-48
2022/11/17 00:55:35;;;;;;;7.35;2.17;;;;;;;25.47;36.01;98920.72;5034355;28;20555;-46
2022/11/17 00:58:03;;;;;;;8.35;2.33;;;;;;;25.44;36.22;98927.81;5017075;28;20132;-46
2022/11/17 01:00:32;;;;;;;6.50;1.90;;;;;;;25.37;36.06;98929.72;5034332;28;20113;-45
2022/11/17 01:03:00;;;;;;;10.63;2.92;;;;;;;25.31;36.26;98927.22;5034028;28;20041;-45
2022/11/17 01:05:29;;;;;;;5.68;1.85;;;;;;;25.25;36.49;98933.50;5032925;28;20034;-49
2022/11/17 01:07:58;;;;;;;7.07;1.83;;;;;;;25.27;36.75;98942.19;5033358;28;20597;-45
2022/11/17 01:10:26;;;;;;;8.30;2.72;;;;;;;25.30;36.79;98925.50;5033910;28;20068;-45
2022/11/17 01:12:56;;;;;;;6.53;2.03;;;;;;;25.24;36.40;98934.38;5032832;28;20058;-46
2022/11/17 01:15:24;;;;;;;9.23;2.50;;;;;;;25.28;36.35;98936.03;5032663;28;20118;-47
2022/11/17 01:17:53;;;;;;;6.05;2.03;;;;;;;25.28;36.38;98940.41;5033944;28;20033;-45
2022/11/17 01:20:21;;;;;;;5.20;1.88;;;;;;;25.31;36.64;98940.34;5033256;28;20030;-45
2022/11/17 01:22:50;;;;;;;7.88;2.25;;;;;;;25.33;36.37;98946.41;5033484;28;20520;-45
2022/11/17 01:25:19;;;;;;;8.98;3.08;;;;;;;25.22;36.79;98946.69;5033028;28;20396;-46
2022/11/17 01:27:48;;;;;;;6.50;1.98;;;;;;;25.28;36.24;98943.91;5034023;28;20120;-45
2022/11/17 01:30:17;;;;;;;6.10;1.70;;;;;;;25.24;36.55;98949.25;5033686;28;20117;-45
2022/11/17 01:32:45;;;;;;;5.63;1.65;;;;;;;25.30;36.44;98957.88;5052657;28;20486;-47
2022/11/17 01:35:13;;;;;;;7.10;2.22;;;;;;;25.32;36.49;98940.28;5053419;28;20032;-45
2022/11/17 01:37:41;;;;;;;6.88;1.85;;;;;;;25.26;36.28;98947.47;5053578;28;20025;-45
2022/11/17 01:40:12;;;;;;;5.30;1.60;;;;;;;25.27;36.54;98946.56;5036108;28;20155;-45
2022/11/17 01:42:40;;;;;;;7.65;2.00;;;;;;;25.24;36.59;98950.13;5035559;28;20115;-52
2022/11/17 01:45:20;;;;;;;4.75;2.03;;;;;;;25.15;36.92;98950.38;5053431;28;20062;-51
2022/11/17 01:47:49;;;;;;;7.05;2.30;;;;;;;25.11;36.70;98957.44;5053352;28;20036;-50
2022/11/17 01:50:37;;;;;;;9.32;2.70;;;;;;;25.22;36.51;98951.94;5035348;28;20029;-45
2022/11/17 01:53:09;;;;;;;7.65;2.08;;;;;;;25.21;36.79;98965.09;5028579;28;20118;-46
2022/11/17 01:55:44;;;;;;;8.32;2.70;;;;;;;25.10;36.96;98962.72;5052997;28;20027;-46
2022/11/17 01:58:16;;;;;;;7.75;2.17;;;;;;;25.14;36.79;98965.22;5035592;28;20108;-46
2022/11/17 02:00:44;;;;;;;6.63;2.30;;;;;;;25.11;36.72;98965.28;5035819;28;20028;-45
2022/11/17 02:03:13;;;;;;;10.23;2.42;;;;;;;25.12;36.87;98971.44;5035200;28;20051;-47
2022/11/17 02:05:46;;;;;;;6.55;2.00;;;;;;;25.12;37.01;98980.13;5035549;28;20021;-47
2022/11/17 02:08:16;;;;;;;8.95;2.78;;;;;;;25.11;36.90;98981.03;5052982;28;20044;-46
2022/11/17 02:10:44;;;;;;;7.65;2.33;;;;;;;25.06;37.00;98979.44;5052765;28;20063;-51
2022/11/17 02:13:13;;;;;;;5.90;2.20;;;;;;;25.06;36.70;98975.06;5053177;28;20048;-51
2022/11/17 02:15:41;;;;;;;7.65;2.20;;;;;;;25.07;36.84;98982.00;5035725;28;20025;-45
2022/11/17 02:18:09;;;;;;;6.15;1.80;;;;;;;25.07;36.84;98965.41;5035367;28;20446;-46
2022/11/17 02:20:57;;;;;;;8.07;2.55;;;;;;;25.08;37.12;98975.84;5035223;28;20028;-54
2022/11/17 02:24:04;;;;;;;7.30;2.50;;;;;;;25.01;37.07;98990.03;5025278;28;20029;-46
2022/11/17 02:26:41;;;;;;;11.80;2.80;;;;;;;25.01;36.86;98972.50;5040561;28;20036;-46
2022/11/17 02:29:35;;;;;;;9.32;2.28;;;;;;;25.09;36.81;98984.59;5035086;28;20032;-48
2022/11/17 02:32:08;;;;;;;6.65;2.03;;;;;;;25.10;36.66;98987.19;5013213;28;20053;-52
2022/11/17 02:34:59;;;;;;;8.13;2.42;;;;;;;25.03;36.72;98996.09;5052958;28;20037;-51
2022/11/17 02:37:33;;;;;;;6.20;2.10;;;;;;;25.07;36.93;98989.03;5029586;28;20037;-47
2022/11/17 02:40:06;;;;;;;6.68;2.53;;;;;;;25.09;37.05;98997.72;5035327;28;20103;-46
2022/11/17 02:45:50;;;;;;;6.93;2.53;;;;;;;25.06;37.02;99001.28;5041884;28;20033;-45
2022/11/17 02:48:24;;;;;;;9.63;2.83;;;;;;;24.99;36.96;99000.53;5034928;28;20072;-51
2022/11/17 02:50:54;;;;;;;6.32;2.30;;;;;;;25.03;37.19;98999.56;5035088;28;20047;-46
2022/11/17 02:53:24;;;;;;;9.05;2.42;;;;;;;24.95;36.98;98995.41;5052404;28;20021;-49
2022/11/17 02:55:54;;;;;;;7.22;2.30;;;;;;;24.92;37.02;98998.97;5034429;28;20029;-46
2022/11/17 02:58:22;;;;;;;8.73;2.50;;;;;;;24.92;37.12;99000.72;5034969;28;20051;-47
2022/11/17 03:01:15;;;;;;;10.07;2.67;;;;;;;24.94;36.91;98999.81;5034944;28;20052;-45
2022/11/17 03:04:22;;;;;;;9.70;2.72;;;;;;;24.92;37.12;99011.19;5042065;28;20037;-50
2022/11/17 03:07:22;;;;;;;8.20;2.75;;;;;;;24.94;37.34;99012.03;5042757;28;20445;-46
2022/11/17 03:10:01;;;;;;;7.00;2.17;;;;;;;24.95;37.17;99009.41;5031642;28;20068;-46
2022/11/17 03:12:54;;;;;;;8.25;2.45;;;;;;;24.77;37.09;98997.53;5052380;28;20404;-51
2022/11/17 03:15:30;;;;;;;8.80;2.17;;;;;;;24.91;37.19;99012.09;5027969;28;20037;-46
2022/11/17 03:18:03;;;;;;;9.45;2.65;;;;;;;24.81;37.34;98993.09;5034591;28;20353;-46
2022/11/17 03:20:34;;;;;;;5.65;2.38;;;;;;;24.95;37.18;98995.41;5052519;28;20025;-46
2022/11/17 03:23:08;;;;;;;7.55;2.20;;;;;;;24.94;37.13;98999.81;5052572;28;20025;-46
2022/11/17 03:25:38;;;;;;;10.77;3.08;;;;;;;24.88;37.00;98992.94;5052117;28;20032;-45
2022/11/17 03:28:09;;;;;;;6.30;1.90;;;;;;;24.90;37.08;98982.41;5034936;28;20029;-46
2022/11/17 03:30:40;;;;;;;7.40;2.47;;;;;;;25.01;37.25;98990.03;5055169;28;20025;-51
2022/11/17 03:33:14;;;;;;;7.85;2.35;;;;;;;24.92;37.02;98980.59;5038091;28;20110;-45
2022/11/17 03:35:45;;;;;;;6.07;2.15;;;;;;;24.86;37.46;98980.72;5056039;28;20096;-46
2022/11/17 03:48:34;;;;;;;8.27;2.63;;;;;;;24.74;37.47;99013.31;5054321;28;20094;-45
2022/11/17 03:51:08;;;;;;;9.43;2.60;;;;;;;24.76;37.40;99002.81;5038018;28;20033;-54
2022/11/17 03:53:37;;;;;;;6.82;2.13;;;;;;;24.72;37.56;99010.75;5055546;28;20029;-47
2022/11/17 03:56:20;;;;;;;8.68;2.50;;;;;;;24.70;37.53;99030.88;5055639;28;20036;-54
2022/11/17 03:59:02;;;;;;;8.23;2.05;;;;;;;24.72;37.86;99060.56;5037624;28;20029;-48
2022/11/17 04:01:32;;;;;;;8.90;2.20;;;;;;;24.73;37.59;99057.03;5055110;28;20028;-45
2022/11/17 04:04:01;;;;;;;9.45;1.98;;;;;;;24.77;37.55;99052.59;5037512;28;20039;-45
2022/11/17 04:06:30;;;;;;;5.80;2.20;;;;;;;24.79;37.41;99045.56;5055142;28;20100;-46
2022/11/17 04:08:58;;;;;;;6.25;1.80;;;;;;;24.76;37.77;99036.91;5054968;28;20427;-47
2022/11/17 04:17:02;;;;;;;4.50;1.63;;;;;;;24.79;37.59;99031.59;5047474;28;20041;-51
2022/11/17 04:19:31;;;;;;;5.68;1.73;;;;;;;24.70;37.62;99038.75;5054853;28;20365;-46
2022/11/17 04:21:59;;;;;;;5.45;1.55;;;;;;;24.70;37.80;99035.28;5054761;28;20025;-45
2022/11/17 04:24:28;;;;;;;5.70;1.83;;;;;;;24.73;37.74;99038.69;5054400;28;20052;-45
2022/11/17 04:29:43;;;;;;;5.25;2.00;;;;;;;24.73;37.66;99036.06;5050802;28;20116;-44
2022/11/17 04:32:12;;;;;;;7.40;2.25;;;;;;;24.76;37.72;99026.41;5033161;28;20427;-52
2022/11/17 04:34:41;;;;;;;4.28;1.33;;;;;;;24.79;37.41;99032.44;5035337;28;20033;-45
2022/11/17 04:37:16;;;;;;;5.07;1.70;;;;;;;24.75;37.57;99033.41;5034580;28;20147;-47
2022/11/17 04:39:45;;;;;;;4.68;1.63;;;;;;;24.63;37.70;99031.88;5033752;28;20404;-46
2022/11/17 04:42:14;;;;;;;4.95;1.58;;;;;;;24.78;37.46;99029.88;5032871;28;20377;-46
2022/11/17 04:44:42;;;;;;;5.80;1.40;;;;;;;24.76;37.37;99026.41;5033301;28;20112;-53
2022/11/17 04:47:11;;;;;;;6.70;2.10;;;;;;;24.71;37.47;99016.88;5034722;28;20074;-48
2022/11/17 04:49:39;;;;;;;7.00;1.30;;;;;;;24.48;37.42;98991.13;5034775;28;20022;-45
2022/11/17 04:52:08;;;;;;;3.10;1.05;;;;;;;24.68;37.64;99032.63;5034210;28;20033;-54
2022/11/17 04:54:36;;;;;;;5.05;1.30;;;;;;;24.70;37.59;99025.63;5034196;28;20025;-47
2022/11/17 04:57:05;;;;;;;5.35;1.35;;;;;;;24.71;37.36;99027.38;5034579;28;20037;-53
2022/11/17 04:59:33;;;;;;;5.07;1.33;;;;;;;24.54;37.86;99029.44;5034322;28;20025;-45
2022/11/17 05:02:01;;;;;;;6.40;1.50;;;;;;;24.54;37.65;99019.84;5034299;28;20088;-52
2022/11/17 05:05:08;;;;;;;4.35;1.42;;;;;;;24.65;37.71;99029.22;5034519;28;20491;-45
2022/11/17 05:07:17;;;;;;;7.47;2.20;;;;;;;24.62;37.33;99019.69;5028361;28;20400;-48
2022/11/17 05:09:45;;;;;;;6.05;1.58;;;;;;;24.65;37.62;99016.13;5034318;28;20494;-45
2022/11/17 05:15:01;;;;;;;4.57;1.60;;;;;;;24.60;37.83;99025.81;5027374;28;20412;-47
2022/11/17 05:17:30;;;;;;;7.90;2.00;;;;;;;24.59;37.61;99027.59;5033811;28;20471;-45
2022/11/17 05:19:58;;;;;;;4.03;1.15;;;;;;;24.62;37.56;99027.53;5034033;28;20036;-45
2022/11/17 05:25:14;;;;;;;6.07;1.80;;;;;;;24.60;37.48;99025.81;5026837;28;20037;-45
2022/11/17 05:27:43;;;;;;;5.38;1.70;;;;;;;24.57;37.69;99024.13;5033766;28;20033;-45
2022/11/17 05:30:11;;;;;;;6.95;1.40;;;;;;;24.63;37.36;99031.88;5033833;28;20029;-44
2022/11/17 05:32:40;;;;;;;6.95;2.17;;;;;;;24.58;37.61;99024.09;5051123;28;20080;-45
2022/11/17 05:35:09;;;;;;;4.15;1.30;;;;;;;24.63;37.57;99024.03;5036160;28;20021;-45
2022/11/17 05:37:37;;;;;;;4.88;1.63;;;;;;;24.54;37.95;99032.06;5035844;28;20029;-45
2022/11/17 05:40:07;;;;;;;7.75;1.77;;;;;;;24.56;37.70;99044.25;5053486;28;20017;-44
2022/11/17 05:42:35;;;;;;;7.18;2.00;;;;;;;24.52;37.55;99042.59;5052830;28;20036;-45
2022/11/17 05:45:04;;;;;;;7.43;2.22;;;;;;;24.57;37.84;99038.09;5053559;28;20036;-52
2022/11/17 05:47:33;;;;;;;5.03;1.73;;;;;;;24.56;37.50;99038.13;5053063;28;20087;-49
2022/11/17 05:50:02;;;;;;;6.80;1.77;;;;;;;24.55;37.60;99044.28;5053413;28;20387;-45
2022/11/17 05:52:30;;;;;;;4.40;1.70;;;;;;;24.55;37.92;99046.88;5053120;28;20495;-53
2022/11/17 05:54:58;;;;;;;6.07;1.90;;;;;;;24.52;37.79;99045.22;5053086;28;20107;-45
2022/11/17 05:57:30;;;;;;;7.75;1.92;;;;;;;24.51;37.81;99046.09;5053507;28;20028;-45
2022/11/17 06:00:03;;;;;;;7.25;1.80;;;;;;;24.60;37.37;99058.16;5035948;28;20036;-48
2022/11/17 06:02:40;;;;;;;6.00;1.85;;;;;;;24.58;37.58;99052.09;5053705;28;20087;-52
2022/11/17 06:05:09;;;;;;;5.72;1.73;;;;;;;24.57;37.80;99059.06;5053064;28;20032;-46
2022/11/17 06:07:38;;;;;;;4.47;1.65;;;;;;;24.56;37.76;99056.50;5052602;28;20099;-53
2022/11/17 06:10:06;;;;;;;5.45;1.67;;;;;;;24.52;37.61;99060.94;5034899;28;20037;-47
2022/11/17 06:12:35;;;;;;;9.60;2.53;;;;;;;24.54;37.92;99058.28;5018938;28;20033;-53
2022/11/17 06:15:04;;;;;;;6.10;1.70;;;;;;;24.49;37.77;99055.75;5052724;28;20539;-48
2022/11/17 06:17:35;;;;;;;7.45;1.67;;;;;;;24.41;37.62;99055.91;5053103;28;20032;-55
2022/11/17 06:20:20;;;;;;;6.05;1.63;;;;;;;24.42;37.94;99054.13;5052728;28;20056;-53
2022/11/17 06:22:49;;;;;;;7.18;2.03;;;;;;;24.39;37.92;99068.16;5052690;28;20119;-53
2022/11/17 06:25:19;;;;;;;5.35;1.67;;;;;;;24.49;37.55;99065.38;5052540;28;20086;-46
2022/11/17 06:27:49;;;;;;;6.13;1.92;;;;;;;24.46;37.95;99070.69;5052486;28;20072;-52
2022/11/17 06:30:18;;;;;;;5.75;1.58;;;;;;;24.52;37.71;99078.41;5053071;28;20029;-53
2022/11/17 06:32:47;;;;;;;3.83;1.30;;;;;;;24.48;37.95;99074.13;5052555;28;20123;-54
2022/11/17 06:35:15;;;;;;;6.72;2.05;;;;;;;24.35;38.07;99076.13;5052559;28;20028;-47
2022/11/17 06:37:44;;;;;;;6.32;1.92;;;;;;;24.36;38.19;99080.47;5052756;28;20046;-56
2022/11/17 06:40:12;;;;;;;5.32;1.55;;;;;;;24.45;37.74;99079.44;5052752;28;20033;-49
2022/11/17 06:43:02;;;;;;;7.60;1.95;;;;;;;24.42;38.10;99088.19;5052087;28;20068;-46
2022/11/17 06:45:34;;;;;;;5.55;1.80;;;;;;;24.42;37.97;99086.44;5052132;28;20033;-48
2022/11/17 06:48:03;;;;;;;6.20;2.03;;;;;;;24.22;38.41;99065.88;5034622;28;20060;-46
2022/11/17 06:50:31;;;;;;;6.38;1.83;;;;;;;24.35;38.08;99079.59;5052258;28;20118;-52
2022/11/17 06:53:01;;;;;;;4.80;1.77;;;;;;;24.39;38.29;99083.88;5052380;28;20056;-46
2022/11/17 06:55:30;;;;;;;8.05;1.90;;;;;;;24.35;38.15;99091.84;5052069;28;20025;-47
2022/11/17 06:58:00;;;;;;;5.00;1.42;;;;;;;24.38;37.98;99092.63;5052726;28;20048;-49
2022/11/17 07:00:29;;;;;;;4.05;1.27;;;;;;;24.44;37.79;99099.50;5052468;28;20472;-46
2022/11/17 07:03:01;;;;;;;6.57;1.80;;;;;;;24.31;38.52;99095.41;5052741;28;20078;-50
2022/11/17 07:05:30;;;;;;;5.40;1.90;;;;;;;24.32;38.15;99095.38;5056218;28;20025;-46
2022/11/17 07:08:01;;;;;;;7.80;1.38;;;;;;;24.34;38.34;99098.81;5037877;28;20024;-49
2022/11/17 07:10:29;;;;;;;6.95;1.45;;;;;;;24.35;38.23;99104.94;5056055;28;20040;-45
2022/11/17 07:12:58;;;;;;;5.10;1.42;;;;;;;24.08;38.56;99063.47;5056148;28;20426;-46
2022/11/17 07:15:27;;;;;;;8.68;1.73;;;;;;;24.36;38.38;99106.66;5056300;28;20025;-46
2022/11/17 07:17:56;;;;;;;5.70;1.55;;;;;;;24.35;38.24;99104.94;5056773;28;20032;-48
2022/11/17 07:20:25;;;;;;;8.93;1.92;;;;;;;24.39;38.51;99106.63;5038438;28;20025;-45
2022/11/17 07:22:59;;;;;;;6.00;1.73;;;;;;;24.34;38.25;99122.41;5055865;28;20463;-46
2022/11/17 07:25:27;;;;;;;5.60;1.77;;;;;;;24.43;38.21;99118.75;5038948;28;20025;-46
2022/11/17 07:27:59;;;;;;;5.47;1.55;;;;;;;24.38;38.24;99118.84;5056297;28;20078;-50
2022/11/17 07:30:29;;;;;;;5.05;1.63;;;;;;;24.38;37.75;99108.38;5037858;28;20052;-46
2022/11/17 07:32:59;;;;;;;8.02;1.50;;;;;;;24.37;38.12;99116.25;5056026;28;20365;-48
2022/11/17 07:35:28;;;;;;;4.68;1.52;;;;;;;24.40;38.45;99122.31;5038020;28;20025;-46
2022/11/17 07:37:58;;;;;;;4.25;1.35;;;;;;;24.45;38.08;99132.69;5055840;28;20031;-46
2022/11/17 07:40:27;;;;;;;6.15;1.92;;;;;;;24.40;38.49;99139.81;5055433;28;20029;-46
2022/11/17 07:42:56;;;;;;;7.18;1.75;;;;;;;24.40;38.23;99145.88;5038105;28;20029;-46
2022/11/17 07:45:26;;;;;;;5.43;1.58;;;;;;;24.28;38.25;99140.88;5055929;28;20032;-46
2022/11/17 07:47:59;;;;;;;5.20;1.40;;;;;;;24.36;38.27;99146.84;5056242;28;20078;-50
2022/11/17 07:50:28;;;;;;;4.82;1.63;;;;;;;24.37;38.39;99159.03;5055800;28;20025;-52
2022/11/17 07:52:58;;;;;;;4.65;1.77;;;;;;;24.27;38.50;99162.72;5055393;28;20036;-48
2022/11/17 07:55:26;;;;;;;5.47;1.98;;;;;;;24.30;38.50;99162.69;5056065;28;20044;-52
2022/11/17 07:57:57;;;;;;;5.35;1.70;;;;;;;24.21;38.93;99165.44;5055528;28;20062;-52
2022/11/17 08:00:27;;;;;;;4.25;1.45;;;;;;;24.27;38.81;99162.72;5055602;28;20036;-49
2022/11/17 08:02:55;;;;;;;5.70;1.50;;;;;;;24.34;38.41;99161.72;5055164;28;20029;-49
2022/11/17 08:05:24;;;;;;;9.80;2.58;;;;;;;24.28;38.86;99162.69;5055427;28;20025;-53
2022/11/17 08:07:57;;;;;;;6.22;1.80;;;;;;;24.30;38.48;99159.19;5054833;28;20033;-46
2022/11/17 08:10:27;;;;;;;4.88;1.70;;;;;;;24.32;38.74;99157.41;5037703;28;20021;-54
2022/11/17 08:12:56;;;;;;;5.63;1.38;;;;;;;24.33;38.42;99172.22;5036972;28;20029;-53
2022/11/17 08:15:24;;;;;;;6.72;1.73;;;;;;;24.34;38.55;99173.97;5054628;28;20032;-45
2022/11/17 08:17:55;;;;;;;6.78;2.10;;;;;;;24.35;38.40;99173.06;5055310;28;20027;-49
2022/11/17 08:20:24;;;;;;;5.60;1.60;;;;;;;24.42;38.71;99187.78;5037745;28;20037;-46
2022/11/17 08:22:53;;;;;;;6.93;1.60;;;;;;;24.39;38.66;99193.97;5054772;28;20029;-45
2022/11/17 08:25:23;;;;;;;7.55;2.03;;;;;;;24.49;38.60;99191.19;5054792;28;20123;-51
2022/11/17 08:27:56;;;;;;;2.90;1.30;;;;;;;24.40;38.52;99189.59;5054666;28;20035;-46
2022/11/17 08:30:25;;;;;;;3.33;1.20;;;;;;;24.33;38.75;99193.19;5054990;28;20031;-52
2022/11/17 08:32:54;;;;;;;4.40;1.27;;;;;;;24.38;38.88;99197.47;5054281;28;20462;-49
2022/11/17 08:35:24;;;;;;;4.05;1.60;;;;;;;24.34;38.73;99198.41;5036768;28;20127;-55
2022/11/17 08:37:54;;;;;;;3.70;1.20;;;;;;;24.42;38.64;99183.44;5054679;28;20024;-51
2022/11/17 08:40:23;;;;;;;3.83;1.15;;;;;;;24.46;38.68;99188.63;5037249;28;20056;-46
2022/11/17 08:42:53;;;;;;;3.45;1.13;;;;;;;24.53;38.61;99195.47;5054736;28;20024;-54
2022/11/17 08:45:22;;;;;;;5.18;1.40;;;;;;;24.50;38.72;99188.53;5053997;28;20058;-49
2022/11/17 08:47:50;;;;;;;7.30;2.05;;;;;;;24.52;38.71;99189.38;5054341;28;20079;-50
2022/11/17 08:50:19;;;;;;;4.70;1.48;;;;;;;24.42;38.79;99177.31;5054603;28;20082;-47
2022/11/17 08:52:48;;;;;;;4.50;1.30;;;;;;;24.46;38.69;99196.50;5053863;28;20063;-53
2022/11/17 08:55:16;;;;;;;3.22;1.10;;;;;;;24.54;38.59;99194.59;5054514;28;20032;-52
2022/11/17 08:57:45;;;;;;;4.05;1.27;;;;;;;24.51;38.55;99186.75;5054480;28;20357;-51
2022/11/17 09:00:14;;;;;;;6.93;1.30;;;;;;;24.48;38.92;99200.81;5054295;28;20104;-46
2022/11/17 09:02:42;;;;;;;4.20;1.33;;;;;;;24.54;38.61;99194.59;5054292;28;20029;-48
2022/11/17 09:05:11;;;;;;;3.92;1.40;;;;;;;24.51;38.75;99195.50;5036427;28;20056;-52
2022/11/17 09:07:39;;;;;;;5.38;1.10;;;;;;;24.52;38.86;99196.38;5054387;28;20036;-49
2022/11/17 09:10:09;;;;;;;6.82;1.42;;;;;;;24.69;38.61;99196.09;5054223;28;20021;-54
2022/11/17 09:12:38;;;;;;;4.55;1.30;;;;;;;24.58;38.72;99199.75;5053748;28;20040;-47
2022/11/17 09:15:07;;;;;;;5.65;0.90;;;;;;;24.53;38.65;99188.50;5053645;28;20033;-49
2022/11/17 09:17:35;;;;;;;4.75;1.60;;;;;;;24.57;39.01;99197.16;5053571;28;20090;-47
2022/11/17 09:20:04;;;;;;;5.97;1.63;;;;;;;24.57;38.83;99200.63;5053638;28;20063;-47
2022/11/17 09:22:32;;;;;;;6.47;1.48;;;;;;;24.42;38.91;99185.16;5053968;28;20545;-46
2022/11/17 09:25:01;;;;;;;5.78;1.17;;;;;;;24.57;38.69;99198.00;5053713;28;20056;-48
2022/11/17 09:27:29;;;;;;;3.05;1.20;;;;;;;24.61;38.71;99203.19;5052927;28;20029;-45
2022/11/17 09:29:58;;;;;;;4.85;1.42;;;;;;;24.54;38.70;99195.47;5036032;28;20094;-47
2022/11/17 09:32:26;;;;;;;3.42;1.40;;;;;;;24.51;38.85;99192.00;5052854;28;20049;-46
2022/11/17 09:34:55;;;;;;;4.25;1.30;;;;;;;24.56;38.68;99200.66;5053877;28;20059;-46
2022/11/17 09:37:25;;;;;;;6.00;1.20;;;;;;;24.57;38.63;99203.25;5053618;28;20094;-45
2022/11/17 09:39:53;;;;;;;4.93;1.83;;;;;;;24.56;38.49;99205.91;5053524;28;20059;-46
2022/11/17 09:42:23;;;;;;;4.03;1.25;;;;;;;24.67;38.71;99211.81;5053524;28;20078;-46
2022/11/17 09:45:09;;;;;;;4.25;1.27;;;;;;;24.59;38.68;99208.47;5053580;28;20074;-46
2022/11/17 09:47:43;;;;;;;5.47;1.17;;;;;;;24.55;38.57;99214.66;5053173;28;20052;-45
2022/11/17 09:50:34;;;;;;;2.95;1.00;;;;;;;24.54;38.64;99215.56;5035704;28;20468;-52
2022/11/17 09:53:23;;;;;;;7.15;1.50;;;;;;;24.56;38.70;99208.53;5046788;28;20044;-49
2022/11/17 09:55:55;;;;;;;3.08;1.05;;;;;;;24.55;38.71;99206.81;5053244;28;20440;-49
2022/11/17 09:58:45;;;;;;;3.25;1.10;;;;;;;24.53;38.76;99214.69;5035700;28;20059;-46
2022/11/17 10:01:16;;;;;;;5.35;1.88;;;;;;;24.54;38.71;99207.69;5028781;28;20110;-46
2022/11/17 10:03:47;;;;;;;3.00;1.20;;;;;;;24.62;38.24;99207.56;5035700;28;20396;-52
2022/11/17 10:06:22;;;;;;;5.90;1.60;;;;;;;24.65;38.29;99208.38;5035349;28;20353;-49
2022/11/17 10:09:01;;;;;;;3.42;1.15;;;;;;;24.63;38.13;99204.03;5053031;28;20033;-51
2022/11/17 10:11:35;;;;;;;4.03;1.15;;;;;;;24.70;38.16;99216.19;5035486;28;20064;-50
2022/11/17 10:14:23;;;;;;;4.57;1.85;;;;;;;24.60;38.59;99223.31;5053209;28;20107;-54
2022/11/17 10:16:54;;;;;;;5.22;1.50;;;;;;;24.63;38.24;99219.78;5052644;28;20040;-51
2022/11/17 10:19:26;;;;;;;7.03;1.05;;;;;;;24.69;38.11;99223.16;5052917;28;20104;-54
2022/11/17 10:22:04;;;;;;;5.35;1.60;;;;;;;24.67;38.21;99222.31;5052421;28;20102;-50
2022/11/17 10:24:46;;;;;;;8.85;1.50;;;;;;;24.67;38.13;99226.69;5052768;28;20040;-45
2022/11/17 10:27:25;;;;;;;6.43;1.63;;;;;;;24.70;38.23;99218.81;5053151;28;20175;-48
2022/11/17 10:29:58;;;;;;;8.15;1.80;;;;;;;24.63;38.19;99223.28;5035144;28;20021;-50
2022/11/17 10:32:28;;;;;;;9.50;1.90;;;;;;;24.60;38.22;99220.69;5052509;28;20053;-45
2022/11/17 10:34:56;;;;;;;6.88;1.55;;;;;;;24.59;38.52;99229.47;5052459;28;20025;-48
2022/11/17 10:37:29;;;;;;;3.67;1.35;;;;;;;24.62;38.25;99221.53;5036414;28;20532;-50
2022/11/17 10:40:18;;;;;;;5.38;1.63;;;;;;;24.65;38.34;99225.88;5039053;28;20476;-46
2022/11/17 10:43:14;;;;;;;8.18;1.85;;;;;;;24.72;38.47;99222.28;5056653;28;20061;-55
2022/11/17 10:45:58;;;;;;;;;;;;;;;24.71;38.38;99231.03;5050823;28;20129;-46
2022/11/17 10:48:30;;;;;;;5.95;1.83;;;;;;;24.71;37.90;99231.91;5039063;28;19920;-48
2022/11/17 10:51:02;;;;;;;6.40;1.70;;;;;;;24.67;38.46;99224.94;5038767;28;20051;-46
2022/11/17 10:53:40;;;;;;;6.45;1.33;;;;;;;24.69;38.11;99228.41;5056519;28;20024;-50
2022/11/17 10:56:20;;;;;;;10.77;2.17;;;;;;;24.65;38.31;99226.75;5056119;28;20023;-45
2022/11/17 10:59:17;;;;;;;22.00;2.13;;;;;;;24.65;38.20;99229.38;5056892;28;20028;-46
2022/11/17 11:01:48;;;;;;;7.30;1.83;;;;;;;24.62;38.25;99234.66;5016610;28;20033;-46
2022/11/17 11:04:40;;;;;;;5.78;1.65;;;;;;;24.68;37.95;99233.69;5038845;28;20032;-46
2022/11/17 11:07:12;;;;;;;5.50;1.40;;;;;;;24.78;37.82;99237.88;5032501;28;20044;-46
2022/11/17 11:10:03;;;;;;;7.97;1.50;;;;;;;24.77;37.74;99230.06;5038507;28;20451;-49
2022/11/17 11:12:59;;;;;;;9.25;1.90;;;;;;;24.71;38.07;99229.28;5055948;28;20132;-50
2022/11/17 11:15:37;;;;;;;4.95;1.48;;;;;;;24.67;37.97;99219.69;5055656;28;20033;-47
2022/11/17 11:18:13;;;;;;;7.95;1.40;;;;;;;24.63;38.18;99215.41;5056495;28;20083;-46
2022/11/17 11:20:58;;;;;;;5.55;1.35;;;;;;;24.70;37.91;99222.28;5038308;28;20053;-47
2022/11/17 11:23:51;;;;;;;7.38;1.58;;;;;;;24.73;38.09;99231.88;5056247;28;20029;-49
2022/11/17 11:26:40;;;;;;;3.90;1.50;;;;;;;24.72;37.74;99217.88;5038563;28;20468;-47
2022/11/17 11:29:46;;;;;;;6.30;1.75;;;;;;;24.71;38.02;99226.66;5047099;28;20124;-47
2022/11/17 11:32:39;;;;;;;7.50;1.80;;;;;;;24.63;38.12;99220.66;5046938;28;20045;-45
2022/11/17 11:35:31;;;;;;;6.57;1.75;;;;;;;24.58;38.59;99218.09;5050234;28;20032;-45
2022/11/17 11:37:59;;;;;;;5.13;1.23;;;;;;;24.61;38.67;99216.31;5031011;28;20116;-45
2022/11/17 11:40:32;;;;;;;4.97;1.27;;;;;;;24.60;38.59;99209.34;5055525;28;20040;-45
2022/11/17 11:43:06;;;;;;;3.88;1.20;;;;;;;24.55;38.67;99212.94;5055617;28;20060;-45
2022/11/17 11:45:58;;;;;;;7.93;1.42;;;;;;;24.56;38.26;99209.41;5038812;28;20032;-53
2022/11/17 11:48:32;;;;;;;6.60;1.30;;;;;;;24.62;38.31;99215.41;5055556;28;20037;-46
2022/11/17 11:51:13;;;;;;;4.55;1.17;;;;;;;24.60;38.66;99225.06;5055433;28;20075;-52
2022/11/17 11:54:02;;;;;;;4.90;1.00;;;;;;;24.54;38.40;99212.94;5038277;28;20033;-51
2022/11/17 11:56:44;;;;;;;3.58;1.20;;;;;;;24.58;38.40;99206.75;5055416;28;20037;-52
2022/11/17 11:59:35;;;;;;;5.32;1.55;;;;;;;24.59;38.33;99208.47;5038324;28;20379;-49
2022/11/17 12:02:16;;;;;;;6.25;1.40;;;;;;;24.63;38.24;99209.28;5049363;28;20110;-45
2022/11/17 12:05:04;;;;;;;4.53;1.13;;;;;;;24.64;38.35;99211.91;5037605;28;20104;-52
2022/11/17 12:07:45;;;;;;;4.88;1.73;;;;;;;24.65;38.18;99207.50;5045954;28;20064;-52
2022/11/17 12:10:39;;;;;;;3.55;1.27;;;;;;;24.59;38.41;99218.97;5037506;28;20033;-45
2022/11/17 12:13:13;;;;;;;3.30;1.00;;;;;;;24.54;38.40;99192.84;5055090;28;20056;-49
2022/11/17 12:15:42;;;;;;;3.75;1.58;;;;;;;24.63;38.29;99214.53;5037321;28;20503;-48
2022/11/17 12:18:20;;;;;;;4.35;1.30;;;;;;;24.62;38.42;99218.03;5037384;28;20116;-49
2022/11/17 12:20:53;;;;;;;3.78;1.25;;;;;;;24.59;38.38;99213.72;5054726;28;20029;-50
2022/11/17 12:23:59;;;;;;;5.13;1.30;;;;;;;24.61;38.42;99221.56;5037414;28;20397;-52
2022/11/17 12:26:30;;;;;;;5.97;1.60;;;;;;;24.69;38.25;99217.91;5042261;28;20136;-46
2022/11/17 12:29:20;;;;;;;6.00;1.45;;;;;;;24.59;38.67;99216.34;5054824;28;20033;-48
2022/11/17 12:31:50;;;;;;;4.65;1.33;;;;;;;24.58;38.63;99218.09;5045506;28;20132;-55
2022/11/17 12:34:38;;;;;;;2.13;0.70;;;;;;;24.47;38.95;99234.91;5054676;28;20036;-47
2022/11/17 12:43:51;;;;;;;2.83;1.05;;;;;;;24.63;38.32;99243.38;5053742;28;20518;-48
2022/11/17 12:46:25;;;;;;;4.38;0.80;;;;;;;24.49;38.63;99238.38;5054603;28;20391;-51